Kings Beach, CA

3:26 AM PDT on August 22, 2014 (GMT -0700)
tahoe vista | Change Station
CLOSE
Current Station
Personal Weather Station
Location: Tahoe Vista, CA
Elevation: 6397 ft
Nearby Weather Stations
Active Advisory: Lake Wind Advisory

Elev 6397 ft 39.24 °N, 120.06 °W | Updated 3 minutes ago

Clear
Clear
54.6 °F
Feels Like 54.6 °F
N
0.0
Wind Variable Wind from North
Gusts 6.0 mph

Today
High -- | Low -- °F
--% Chance of Precip.
Yesterday
High -- | Low -- °F
Precip. -- in
6:19 AM 7:45 PM
Waning Crescent, 9% visible
Pressure 30.15 in
Visibility 10.0 miles
Clouds Clear
Dew Point 30 °F
Humidity 39%
Rainfall 0.00 in
Snow Depth 0 in , 1 in , 0 in
UV 0 out of 12
Pollen 7.30 out of 12
Air Quality Not available.
Flu Activity Not available.
METAR KTRK 221015Z AUTO 00000KT 10SM CLR 03/01 A3015 RMK AO2

More Conditions Fewer Conditions

Pressure 30.15 in
Visibility 10.0 miles
Clouds Clear
Dew Point 30 °F
Humidity 39%
Rainfall 0.00 in
Snow Depth 0 in , 1 in , 0 in
UV 0 out of 12
Pollen 7.30 out of 12
Air Quality Not available.
Flu Activity Not available.
METAR KTRK 221015Z AUTO 00000KT 10SM CLR 03/01 A3015 RMK AO2

More Conditions Fewer Conditions

10-Day Weather Forecast

Almanac

Astronomy

Aug. 22, 2014 Rise Set
Actual Time 6:19 AM PDT 7:45 PM PDT
Civil Twilight 5:51 AM PDT 8:13 PM PDT
Nautical Twilight 5:17 AM PDT 8:47 PM PDT
Astronomical Twilight 4:42 AM PDT 9:22 PM PDT
Moon 3:47 AM PDT 5:56 PM PDT
Length of Visible Light 14h 22m
Length of Day
13h 26m
Tomorrow will be 2m 22s shorter.
Waning Crescent, 9% of the Moon is Illuminated
Today
Waning Crescent
Aug 25
New
Sep 2
First Quarter
Sep 8
Full
Sep 15
Last Quarter

Today's Extremes

State Highs State Lows

Community

WunderPhotos

Upload Photos

1,746,149 photos uploaded!

Nearby

Snow Depth

Station Depth Elevation
Tahoe City Cross 0 in 6750 ft
CSS Lab 1 in 6900 ft
Independence Camp 0 in 7000 ft
Independence Creek 0 in 6500 ft
Fallen Leaf 0 in 6300 ft

Earthquake Activity

City Distance Mag. Time & Date
No recent earthquake activity has been reported nearby.
Minimum magnitude displayed is 2.5.

Coastal Water Temperatures

Place Temperature
No Stations Reporting

Nearby Weather Stations